Time;durP1;ratioP1;P1;durP2;ratioP2;P2;SDS_P1;SDS_P2;PMS_P1;PMS_P2;Temp;Humidity;BMP_temperature;BMP_pressure;BME280_temperature;BME280_humidity;BME280_pressure;Samples;Min_cycle;Max_cycle;Signal;HPM_P1;HPM_P2
2023/06/03 00:01:34;;;;;;;;;;;;;;;13.42;43.27;101897.69;4154446;28;20011;-72
2023/06/03 00:03:36;;;;;;;;;;;;;;;13.38;43.35;101902.56;4152418;28;20008;-72
2023/06/03 00:05:38;;;;;;;;;;;;;;;13.33;43.62;101896.81;4154146;28;20443;-71
2023/06/03 00:07:40;;;;;;;;;;;;;;;13.30;43.74;101892.53;4152794;28;20789;-72
2023/06/03 00:09:42;;;;;;;;;;;;;;;13.31;43.76;101898.81;4153946;28;20048;-72
2023/06/03 00:11:44;;;;;;;;;;;;;;;13.28;43.51;101901.88;4153337;28;20024;-72
2023/06/03 00:13:48;;;;;;;;;;;;;;;13.20;44.00;101896.41;4168099;28;20019;-72
2023/06/03 00:15:50;;;;;;;;;;;;;;;13.13;44.04;101899.81;4154532;28;20041;-72
2023/06/03 00:17:52;;;;;;;;;;;;;;;13.11;44.11;101898.25;4151034;28;20495;-72
2023/06/03 00:19:54;;;;;;;;;;;;;;;13.09;43.93;101894.88;4153836;28;20012;-72
2023/06/03 00:22:00;;;;;;;;;;;;;;;13.07;44.29;101897.75;4153617;28;20029;-72
2023/06/03 00:24:02;;;;;;;;;;;;;;;13.14;44.15;101898.75;4154064;28;20024;-72
2023/06/03 00:26:04;;;;;;;;;;;;;;;13.16;43.87;101894.03;4152389;28;20020;-72
2023/06/03 00:28:06;;;;;;;;;;;;;;;13.15;43.71;101891.50;4157885;28;20620;-72
2023/06/03 00:30:10;;;;;;;;;;;;;;;13.15;43.97;101896.91;4156138;28;20020;-72
2023/06/03 00:32:12;;;;;;;;;;;;;;;13.08;43.99;101896.72;4151074;28;20031;-73
2023/06/03 00:34:15;;;;;;;;;;;;;;;13.07;43.83;101896.88;4152312;28;20101;-72
2023/06/03 00:36:17;;;;;;;;;;;;;;;13.01;44.19;101900.25;4157423;28;20019;-72
2023/06/03 00:38:19;;;;;;;;;;;;;;;12.92;44.08;101894.81;4171423;28;20008;-72
2023/06/03 00:40:21;;;;;;;;;;;;;;;12.88;44.19;101898.84;4157130;28;19999;-72
2023/06/03 00:42:23;;;;;;;;;;;;;;;12.84;44.65;101896.66;4157184;28;20020;-72
2023/06/03 00:44:25;;;;;;;;;;;;;;;12.90;44.26;101904.09;4169480;28;20035;-72
2023/06/03 00:46:29;;;;;;;;;;;;;;;12.97;43.99;101899.75;4157856;28;20024;-72
2023/06/03 00:48:31;;;;;;;;;;;;;;;12.97;44.20;101902.44;4171031;28;20028;-72
2023/06/03 00:50:33;;;;;;;;;;;;;;;12.93;43.77;101901.06;4155454;28;20028;-72
2023/06/03 00:52:38;;;;;;;;;;;;;;;12.90;44.08;101904.09;4156739;28;20748;-72
2023/06/03 00:54:40;;;;;;;;;;;;;;;12.88;44.38;101904.28;4172072;28;20024;-72
2023/06/03 00:56:42;;;;;;;;;;;;;;;12.80;44.42;101902.41;4156609;28;20020;-72
2023/06/03 00:58:44;;;;;;;;;;;;;;;12.73;44.53;101903.22;4172690;28;20028;-72
2023/06/03 01:00:47;;;;;;;;;;;;;;;12.64;44.83;101901.47;4155553;28;20028;-72
2023/06/03 01:02:52;;;;;;;;;;;;;;;12.60;44.57;101900.94;4157007;28;20019;-72
2023/06/03 01:04:57;;;;;;;;;;;;;;;12.59;44.83;101905.50;4156116;28;20036;-72
2023/06/03 01:07:09;;;;;;;;;;;;;;;12.60;44.88;101903.63;4157742;28;20015;-72
2023/06/03 01:09:13;;;;;;;;;;;;;;;12.69;44.32;101901.81;4155042;28;20389;-73
2023/06/03 01:11:16;;;;;;;;;;;;;;;12.60;44.75;101899.09;4157151;28;20032;-72
2023/06/03 01:13:22;;;;;;;;;;;;;;;12.53;45.11;101900.75;4156515;28;20023;-72
2023/06/03 01:15:25;;;;;;;;;;;;;;;12.48;45.01;101891.41;4153997;28;20016;-72
2023/06/03 01:17:28;;;;;;;;;;;;;;;12.45;45.14;101900.69;4157533;28;20020;-72
2023/06/03 01:19:38;;;;;;;;;;;;;;;12.48;44.80;101904.97;4162360;28;20019;-72
2023/06/03 01:21:42;;;;;;;;;;;;;;;12.40;45.15;101908.47;4171925;28;20028;-72
2023/06/03 01:23:46;;;;;;;;;;;;;;;12.34;45.03;101907.25;4152192;28;20008;-72
2023/06/03 01:25:50;;;;;;;;;;;;;;;12.28;45.22;101907.03;4172186;28;20028;-72
2023/06/03 01:27:53;;;;;;;;;;;;;;;12.20;45.26;101905.97;4156161;28;20025;-72
2023/06/03 01:29:55;;;;;;;;;;;;;;;12.17;45.46;101906.28;4163104;28;20016;-72
2023/06/03 01:31:57;;;;;;;;;;;;;;;12.16;45.34;101901.03;4170584;28;19998;-72
2023/06/03 01:33:59;;;;;;;;;;;;;;;12.15;45.46;101899.34;4154599;28;20012;-72
2023/06/03 01:36:01;;;;;;;;;;;;;;;12.19;45.67;101906.97;4156735;28;20033;-72
2023/06/03 01:38:04;;;;;;;;;;;;;;;12.23;44.97;101911.06;4155785;28;20032;-72
2023/06/03 01:40:09;;;;;;;;;;;;;;;12.25;45.05;101900.06;4171587;28;20032;-72
2023/06/03 01:42:12;;;;;;;;;;;;;;;12.25;44.97;101905.50;4171061;28;20008;-72
2023/06/03 01:44:16;;;;;;;;;;;;;;;12.20;45.10;101903.25;4154963;28;20015;-72
2023/06/03 01:46:19;;;;;;;;;;;;;;;12.12;45.23;101902.38;4155119;28;20020;-72
2023/06/03 01:48:21;;;;;;;;;;;;;;;12.03;45.66;101905.00;4163080;28;20885;-72
2023/06/03 01:50:23;;;;;;;;;;;;;;;12.01;45.51;101900.78;4154553;28;20365;-72
2023/06/03 01:52:26;;;;;;;;;;;;;;;11.99;45.62;101906.34;4170752;28;20016;-72
2023/06/03 01:54:28;;;;;;;;;;;;;;;11.98;45.63;101909.19;4154785;28;20020;-72
2023/06/03 01:56:31;;;;;;;;;;;;;;;12.00;45.58;101904.47;4170619;28;20084;-72
2023/06/03 01:58:35;;;;;;;;;;;;;;;11.95;45.52;101901.41;4154169;28;20076;-72
2023/06/03 02:00:37;;;;;;;;;;;;;;;11.95;45.40;101906.81;4137240;28;20435;-72
2023/06/03 02:02:40;;;;;;;;;;;;;;;11.89;45.71;101902.84;4154243;28;20027;-72
2023/06/03 02:04:45;;;;;;;;;;;;;;;11.83;45.72;101904.31;4154721;28;20503;-72
2023/06/03 02:06:48;;;;;;;;;;;;;;;11.78;46.06;101908.50;4170168;28;20021;-72
2023/06/03 02:08:50;;;;;;;;;;;;;;;11.68;46.15;101906.72;4165005;28;20462;-72
2023/06/03 02:10:52;;;;;;;;;;;;;;;11.69;46.26;101910.28;4156686;28;20032;-72
2023/06/03 02:12:55;;;;;;;;;;;;;;;11.73;46.21;101915.22;4153225;28;20040;-72
2023/06/03 02:14:58;;;;;;;;;;;;;;;11.76;46.01;101915.94;4155212;28;20435;-72
2023/06/03 02:17:01;;;;;;;;;;;;;;;11.72;46.11;101909.97;4156637;28;20435;-72
2023/06/03 02:19:04;;;;;;;;;;;;;;;11.73;45.90;101908.97;4166357;28;20020;-72
2023/06/03 02:21:06;;;;;;;;;;;;;;;11.76;45.99;101914.06;4169012;28;20039;-72
2023/06/03 02:23:11;;;;;;;;;;;;;;;11.73;45.92;101912.50;4169726;28;20031;-72
2023/06/03 02:25:13;;;;;;;;;;;;;;;11.71;46.20;101913.69;4155053;28;20025;-72
2023/06/03 02:27:15;;;;;;;;;;;;;;;11.68;45.93;101914.00;4154486;28;20394;-72
2023/06/03 02:29:19;;;;;;;;;;;;;;;11.64;46.17;101916.16;4152038;28;20555;-72
2023/06/03 02:31:21;;;;;;;;;;;;;;;11.60;46.22;101920.19;4154325;28;20119;-72
2023/06/03 02:33:23;;;;;;;;;;;;;;;11.63;46.36;101919.00;4150109;28;20008;-72
2023/06/03 02:35:25;;;;;;;;;;;;;;;11.58;46.12;101921.34;4169920;28;20486;-72
2023/06/03 02:37:27;;;;;;;;;;;;;;;11.55;46.15;101917.06;4153592;28;20024;-72
2023/06/03 02:39:29;;;;;;;;;;;;;;;11.49;46.16;101917.72;4147347;28;20052;-72
2023/06/03 02:41:32;;;;;;;;;;;;;;;11.41;46.29;101926.59;4155697;28;20439;-73
2023/06/03 02:43:34;;;;;;;;;;;;;;;11.42;46.61;101927.44;4169870;28;20027;-72
2023/06/03 02:45:37;;;;;;;;;;;;;;;11.38;46.41;101926.91;4169609;28;20004;-72
2023/06/03 02:47:40;;;;;;;;;;;;;;;11.40;46.46;101921.34;4148937;28;20348;-72
2023/06/03 02:49:44;;;;;;;;;;;;;;;11.39;46.81;101925.03;4153317;28;20471;-72
2023/06/03 02:51:46;;;;;;;;;;;;;;;11.40;46.50;101924.91;4153318;28;20187;-72
2023/06/03 02:53:48;;;;;;;;;;;;;;;11.45;46.89;101921.72;4169060;28;20020;-72
2023/06/03 02:55:50;;;;;;;;;;;;;;;11.46;46.17;101924.28;4156371;28;20081;-72
2023/06/03 02:57:52;;;;;;;;;;;;;;;11.44;46.65;101922.72;4154077;28;20020;-72
2023/06/03 02:59:55;;;;;;;;;;;;;;;11.40;46.43;101927.59;4152204;28;20392;-72
2023/06/03 03:01:58;;;;;;;;;;;;;;;11.47;46.47;101927.81;4168693;28;20046;-72
2023/06/03 03:04:01;;;;;;;;;;;;;;;11.47;46.43;101923.28;4150490;28;20028;-72
2023/06/03 03:06:03;;;;;;;;;;;;;;;11.55;46.26;101933.31;4152039;28;20019;-72
2023/06/03 03:08:05;;;;;;;;;;;;;;;11.52;46.10;101925.53;4170100;28;20019;-72
2023/06/03 03:10:07;;;;;;;;;;;;;;;11.51;46.16;101927.38;4154107;28;20669;-72
2023/06/03 03:12:12;;;;;;;;;;;;;;;11.52;46.17;101918.25;4153044;28;20458;-72
2023/06/03 03:14:18;;;;;;;;;;;;;;;11.57;46.23;101923.19;4170160;28;20015;-72
2023/06/03 03:16:23;;;;;;;;;;;;;;;11.53;46.18;101922.63;4153351;28;20020;-72
2023/06/03 03:18:28;;;;;;;;;;;;;;;11.46;46.46;101924.28;4153159;28;20020;-72
2023/06/03 03:20:30;;;;;;;;;;;;;;;11.43;46.36;101919.19;4169043;28;20020;-72
2023/06/03 03:22:33;;;;;;;;;;;;;;;11.35;46.53;101930.75;4152688;28;20023;-73
2023/06/03 03:24:38;;;;;;;;;;;;;;;11.31;46.77;101926.66;4153331;28;20008;-73
2023/06/03 03:26:41;;;;;;;;;;;;;;;11.31;46.70;101933.94;4151630;28;20020;-72
2023/06/03 03:28:43;;;;;;;;;;;;;;;11.31;46.66;101929.34;4153615;28;20020;-71
2023/06/03 03:30:49;;;;;;;;;;;;;;;11.29;46.80;101927.81;4151483;28;20012;-72
2023/06/03 03:32:51;;;;;;;;;;;;;;;11.27;46.78;101929.81;4169235;28;20035;-72
2023/06/03 03:35:00;;;;;;;;;;;;;;;11.29;46.77;101935.94;4152376;28;20025;-72
2023/06/03 03:37:01;;;;;;;;;;;;;;;11.26;46.93;101925.44;4155198;28;20032;-72
2023/06/03 03:39:05;;;;;;;;;;;;;;;11.31;47.11;101939.34;4151417;28;20020;-72
2023/06/03 03:41:11;;;;;;;;;;;;;;;11.36;46.52;101932.47;4136697;28;20032;-72
2023/06/03 03:43:15;;;;;;;;;;;;;;;11.31;46.64;101929.34;4150426;28;20012;-72
2023/06/03 03:45:20;;;;;;;;;;;;;;;11.33;46.63;101931.91;4169215;28;20016;-72
2023/06/03 03:47:22;;;;;;;;;;;;;;;11.30;47.04;101938.50;4152740;28;20024;-72
2023/06/03 03:49:28;;;;;;;;;;;;;;;11.28;46.75;101939.63;4152674;28;20027;-72
2023/06/03 03:51:33;;;;;;;;;;;;;;;11.30;47.13;101929.50;4152919;28;20028;-72
2023/06/03 03:53:35;;;;;;;;;;;;;;;11.34;46.74;101937.16;4152537;28;20175;-72
2023/06/03 03:55:40;;;;;;;;;;;;;;;11.41;46.60;101940.13;4169196;28;20085;-72
2023/06/03 03:57:42;;;;;;;;;;;;;;;11.47;46.54;101941.34;4169424;28;20023;-72
2023/06/03 03:59:44;;;;;;;;;;;;;;;11.39;47.11;101947.53;4154538;28;20028;-72
2023/06/03 04:01:46;;;;;;;;;;;;;;;11.36;46.99;101940.59;4150191;28;20124;-72
2023/06/03 04:03:55;;;;;;;;;;;;;;;11.35;46.79;101941.59;4152190;28;20502;-71
2023/06/03 04:05:58;;;;;;;;;;;;;;;11.34;47.37;101939.88;4153148;28;20017;-72
2023/06/03 04:08:01;;;;;;;;;;;;;;;11.45;47.02;101948.78;4154328;28;20027;-72
2023/06/03 04:10:07;;;;;;;;;;;;;;;11.54;46.89;101950.56;4168845;28;19941;-71
2023/06/03 04:12:17;;;;;;;;;;;;;;;11.60;46.42;101949.97;4154053;28;20008;-71
2023/06/03 04:14:20;;;;;;;;;;;;;;;11.60;46.44;101954.50;4168989;28;20019;-71
2023/06/03 04:16:38;;;;;;;;;;;;;;;11.59;46.51;101950.94;4152990;28;20020;-71
2023/06/03 04:18:43;;;;;;;;;;;;;;;11.64;46.26;101958.59;4168255;28;20016;-71
2023/06/03 04:20:48;;;;;;;;;;;;;;;11.62;46.53;101960.63;4169165;28;20462;-71
2023/06/03 04:22:51;;;;;;;;;;;;;;;11.61;46.59;101951.63;4152040;28;19929;-71
2023/06/03 04:24:57;;;;;;;;;;;;;;;11.68;46.48;101957.31;4169350;28;20017;-71
2023/06/03 04:27:02;;;;;;;;;;;;;;;11.73;46.26;101954.97;4169965;28;20047;-71
2023/06/03 04:29:06;;;;;;;;;;;;;;;11.79;46.14;101965.19;4152196;28;20024;-71
2023/06/03 04:31:08;;;;;;;;;;;;;;;11.85;46.06;101953.75;4170400;28;20015;-71
2023/06/03 04:33:10;;;;;;;;;;;;;;;11.88;45.94;101956.13;4168959;28;20015;-71
2023/06/03 04:35:12;;;;;;;;;;;;;;;11.94;45.67;101962.78;4151599;28;20020;-71
2023/06/03 04:37:18;;;;;;;;;;;;;;;11.94;45.92;101962.78;4152802;28;20017;-71
2023/06/03 04:39:20;;;;;;;;;;;;;;;11.98;45.92;101960.66;4159630;28;20008;-71
2023/06/03 04:41:28;;;;;;;;;;;;;;;12.00;46.15;101958.63;4163742;28;20040;-71
2023/06/03 04:43:30;;;;;;;;;;;;;;;12.06;46.05;101958.00;4152365;28;20447;-71
2023/06/03 04:45:33;;;;;;;;;;;;;;;12.12;45.52;101957.38;4153797;28;20016;-71
2023/06/03 04:47:41;;;;;;;;;;;;;;;12.11;45.88;101963.78;4152069;28;20016;-71
2023/06/03 04:49:47;;;;;;;;;;;;;;;12.08;46.11;101954.13;4168330;28;20012;-71
2023/06/03 04:51:49;;;;;;;;;;;;;;;12.08;45.97;101945.13;4153816;28;20020;-71
2023/06/03 04:53:51;;;;;;;;;;;;;;;12.10;45.93;101950.41;4167780;28;20466;-71
2023/06/03 04:55:53;;;;;;;;;;;;;;;12.07;46.14;101948.88;4149212;28;20024;-71
2023/06/03 04:58:02;;;;;;;;;;;;;;;12.09;46.31;101946.84;4169211;28;20004;-71
2023/06/03 05:00:07;;;;;;;;;;;;;;;12.07;46.42;101960.53;4169292;28;20040;-71
2023/06/03 05:02:10;;;;;;;;;;;;;;;12.06;46.97;101950.72;4167403;28;20067;-71
2023/06/03 05:04:13;;;;;;;;;;;;;;;12.14;46.73;101949.09;4152195;28;20004;-71
2023/06/03 05:06:16;;;;;;;;;;;;;;;12.18;46.55;101954.03;4168735;28;20411;-71
2023/06/03 05:08:19;;;;;;;;;;;;;;;12.23;46.41;101954.41;4153184;28;20020;-72
2023/06/03 05:10:24;;;;;;;;;;;;;;;12.26;46.32;101956.78;4168110;28;20004;-71
2023/06/03 05:12:26;;;;;;;;;;;;;;;12.29;46.20;101957.47;4148974;28;20032;-71
2023/06/03 05:14:30;;;;;;;;;;;;;;;12.27;46.07;101954.94;4171405;28;20011;-71
2023/06/03 05:16:33;;;;;;;;;;;;;;;12.27;46.17;101963.06;4171594;28;20015;-72
2023/06/03 05:18:36;;;;;;;;;;;;;;;12.28;46.04;101962.06;4155926;28;20012;-72
2023/06/03 05:20:39;;;;;;;;;;;;;;;12.26;45.66;101958.66;4167369;28;20465;-72
2023/06/03 05:22:41;;;;;;;;;;;;;;;12.23;46.07;101957.09;4155133;28;20023;-72
2023/06/03 05:24:43;;;;;;;;;;;;;;;12.27;45.71;101957.63;4171909;28;20487;-72
2023/06/03 05:26:46;;;;;;;;;;;;;;;12.30;45.23;101960.03;4155474;28;20392;-72
2023/06/03 05:28:49;;;;;;;;;;;;;;;12.32;45.39;101954.44;4155277;28;20016;-72
2023/06/03 05:30:54;;;;;;;;;;;;;;;12.34;45.51;101960.59;4155252;28;20020;-72
2023/06/03 05:32:58;;;;;;;;;;;;;;;12.36;45.56;101955.84;4170727;28;20032;-72
2023/06/03 05:35:01;;;;;;;;;;;;;;;12.40;45.47;101959.94;4153705;28;20013;-72
2023/06/03 05:37:04;;;;;;;;;;;;;;;12.41;45.58;101958.91;4172787;28;20371;-72
2023/06/03 05:39:06;;;;;;;;;;;;;;;12.43;45.71;101955.06;4170174;28;20028;-72
2023/06/03 05:41:08;;;;;;;;;;;;;;;12.46;45.09;101948.47;4156505;28;20377;-72
2023/06/03 05:43:10;;;;;;;;;;;;;;;12.45;44.72;101957.59;4171153;28;20031;-71
2023/06/03 05:45:13;;;;;;;;;;;;;;;12.50;45.12;101951.69;4155988;28;20039;-72
2023/06/03 05:47:16;;;;;;;;;;;;;;;12.56;45.46;101953.78;4156571;28;20012;-72
2023/06/03 05:49:19;;;;;;;;;;;;;;;12.62;45.33;101950.44;4162241;28;20032;-72
2023/06/03 05:51:21;;;;;;;;;;;;;;;12.65;45.12;101951.94;4171636;28;20036;-72
2023/06/03 05:53:24;;;;;;;;;;;;;;;12.66;45.11;101948.22;4153554;28;20032;-72
2023/06/03 05:55:26;;;;;;;;;;;;;;;12.70;44.89;101950.47;4154093;28;20020;-72
2023/06/03 05:57:29;;;;;;;;;;;;;;;12.73;44.73;101955.56;4137790;28;20456;-72
2023/06/03 05:59:32;;;;;;;;;;;;;;;12.76;44.49;101957.09;4161737;28;20439;-72
2023/06/03 06:01:35;;;;;;;;;;;;;;;12.84;44.57;101953.59;4154276;28;20090;-72
2023/06/03 06:03:38;;;;;;;;;;;;;;;12.93;44.82;101953.47;4154365;28;20024;-72
2023/06/03 06:05:40;;;;;;;;;;;;;;;13.00;44.18;101953.66;4138832;28;21404;-73
2023/06/03 06:07:42;;;;;;;;;;;;;;;13.06;44.33;101950.28;4136683;28;19969;-71
2023/06/03 06:09:45;;;;;;;;;;;;;;;13.14;43.40;101944.88;4138608;28;20024;-74
2023/06/03 06:11:47;;;;;;;;;;;;;;;13.22;43.63;101960.34;4144662;28;20020;-72
2023/06/03 06:13:49;;;;;;;;;;;;;;;13.27;43.93;101957.13;4143668;28;20021;-71
2023/06/03 06:15:58;;;;;;;;;;;;;;;13.29;43.66;101955.97;4140561;28;20012;-71
2023/06/03 06:18:00;;;;;;;;;;;;;;;13.35;43.59;101962.59;4153211;28;20027;-72
2023/06/03 06:20:04;;;;;;;;;;;;;;;13.40;43.68;101959.38;4138299;28;20016;-72
2023/06/03 06:22:09;;;;;;;;;;;;;;;13.42;42.80;101962.81;4145279;28;19971;-72
2023/06/03 06:24:11;;;;;;;;;;;;;;;13.41;42.52;101961.09;4135334;28;20008;-71
2023/06/03 06:26:14;;;;;;;;;;;;;;;13.44;42.72;101958.91;4138550;28;20386;-72
2023/06/03 06:28:16;;;;;;;;;;;;;;;13.48;43.13;101959.44;4137601;28;20029;-72
2023/06/03 06:30:18;;;;;;;;;;;;;;;13.52;43.35;101968.91;4137051;28;20028;-72
2023/06/03 06:32:22;;;;;;;;;;;;;;;13.57;43.23;101963.84;4151395;28;20091;-71
2023/06/03 06:34:29;;;;;;;;;;;;;;;13.63;42.27;101956.91;4160033;28;20032;-72
2023/06/03 06:36:39;;;;;;;;;;;;;;;13.64;41.80;101959.44;4169867;28;20047;-72
2023/06/03 06:38:46;;;;;;;;;;;;;;;13.67;42.21;101964.53;4168595;28;20543;-71
2023/06/03 06:40:48;;;;;;;;;;;;;;;13.71;41.86;101954.19;4155220;28;20016;-72
2023/06/03 06:42:51;;;;;;;;;;;;;;;13.76;42.53;101959.97;4168395;28;20023;-72
2023/06/03 06:45:04;;;;;;;;;;;;;;;13.79;42.19;101965.06;4153760;28;20020;-72
2023/06/03 06:47:07;;;;;;;;;;;;;;;13.81;42.35;101960.31;4151496;28;20012;-73
2023/06/03 06:49:09;;;;;;;;;;;;;;;13.86;42.02;101957.09;4153408;28;20020;-72
2023/06/03 06:51:14;;;;;;;;;;;;;;;13.91;42.28;101954.72;4152471;28;20389;-73
2023/06/03 06:53:18;;;;;;;;;;;;;;;13.97;41.93;101955.91;4154707;28;20074;-72
2023/06/03 06:55:26;;;;;;;;;;;;;;;14.01;42.08;101954.53;4168193;28;20019;-71
2023/06/03 06:57:28;;;;;;;;;;;;;;;14.04;41.55;101965.06;4155074;28;20016;-72
2023/06/03 06:59:31;;;;;;;;;;;;;;;14.05;41.24;101955.91;4168866;28;20375;-72
2023/06/03 07:01:33;;;;;;;;;;;;;;;14.08;41.14;101965.59;4154803;28;20645;-73
2023/06/03 07:03:36;;;;;;;;;;;;;;;14.08;41.02;101962.88;4169269;28;20020;-72
2023/06/03 07:05:39;;;;;;;;;;;;;;;14.10;41.48;101967.09;4170557;28;20461;-72
2023/06/03 07:07:41;;;;;;;;;;;;;;;14.12;41.39;101959.66;4156075;28;20020;-73
2023/06/03 07:09:45;;;;;;;;;;;;;;;14.17;41.81;101964.53;4170154;28;20027;-72
2023/06/03 07:11:52;;;;;;;;;;;;;;;14.22;40.78;101967.63;4170632;28;20020;-72
2023/06/03 07:13:55;;;;;;;;;;;;;;;14.23;40.91;101963.84;4160194;28;20024;-72
2023/06/03 07:16:00;;;;;;;;;;;;;;;14.23;40.98;101959.28;4154506;28;19929;-74
2023/06/03 07:18:02;;;;;;;;;;;;;;;14.28;41.38;101958.78;4155817;28;20612;-72
2023/06/03 07:20:05;;;;;;;;;;;;;;;14.33;41.33;101959.09;4168827;28;20012;-72
2023/06/03 07:22:08;;;;;;;;;;;;;;;14.37;41.47;101962.31;4154602;28;20351;-73
2023/06/03 07:24:12;;;;;;;;;;;;;;;14.39;41.33;101958.41;4159636;28;20025;-73
2023/06/03 07:26:18;;;;;;;;;;;;;;;14.42;41.36;101966.22;4169279;28;20023;-72
2023/06/03 07:28:20;;;;;;;;;;;;;;;14.47;41.37;101957.56;4152876;28;20027;-72
2023/06/03 07:30:23;;;;;;;;;;;;;;;14.51;40.74;101961.59;4159981;28;20020;-72
2023/06/03 07:32:25;;;;;;;;;;;;;;;14.54;40.86;101968.56;4167567;28;20111;-74
2023/06/03 07:34:27;;;;;;;;;;;;;;;14.57;40.26;101949.19;4155287;28;20017;-73
2023/06/03 07:36:30;;;;;;;;;;;;;;;14.57;40.56;101950.03;4168009;28;20027;-73
2023/06/03 07:38:46;;;;;;;;;;;;;;;14.60;40.79;101955.16;4154639;28;20027;-72
2023/06/03 07:40:49;;;;;;;;;;;;;;;14.66;40.34;101955.50;4155573;28;20311;-73
2023/06/03 07:42:52;;;;;;;;;;;;;;;14.68;40.38;101953.47;4167959;28;20017;-72
2023/06/03 07:44:55;;;;;;;;;;;;;;;14.70;40.49;101952.28;4166889;28;20024;-73
2023/06/03 07:46:57;;;;;;;;;;;;;;;14.74;39.74;101958.19;4155923;28;20025;-73
2023/06/03 07:49:01;;;;;;;;;;;;;;;14.76;39.38;101953.41;4154955;28;20028;-73
2023/06/03 07:51:03;;;;;;;;;;;;;;;14.76;39.69;101950.69;4155356;28;20092;-74
2023/06/03 07:53:05;;;;;;;;;;;;;;;14.76;39.54;101946.13;4155570;28;20032;-74
2023/06/03 07:55:10;;;;;;;;;;;;;;;14.78;39.54;101951.41;4155429;28;20065;-74
2023/06/03 07:57:12;;;;;;;;;;;;;;;14.82;39.60;101943.72;4156260;28;20052;-74
2023/06/03 07:59:20;;;;;;;;;;;;;;;14.86;40.05;101950.50;4153649;28;19929;-73
2023/06/03 08:01:35;;;;;;;;;;;;;;;14.90;39.95;101958.13;4155136;28;20128;-74
2023/06/03 08:03:45;;;;;;;;;;;;;;;14.95;39.85;101947.59;4152284;28;20296;-72
2023/06/03 08:05:47;;;;;;;;;;;;;;;14.95;39.99;101947.59;4152961;28;19933;-73
2023/06/03 08:07:50;;;;;;;;;;;;;;;14.98;39.93;101951.81;4154523;28;19940;-74
2023/06/03 08:09:53;;;;;;;;;;;;;;;15.02;39.82;101944.16;4157221;28;20018;-74
2023/06/03 08:11:58;;;;;;;;;;;;;;;15.05;39.67;101947.38;4132592;28;20020;-73
2023/06/03 08:14:00;;;;;;;;;;;;;;;15.07;39.21;101949.91;4153938;28;20043;-74
2023/06/03 08:16:06;;;;;;;;;;;;;;;15.07;39.80;101948.03;4171030;28;20011;-74
2023/06/03 08:18:08;;;;;;;;;;;;;;;15.12;39.76;101942.06;4155381;28;20023;-74
2023/06/03 08:20:12;;;;;;;;;;;;;;;15.17;39.78;101945.06;4154507;28;20028;-74
2023/06/03 08:22:27;;;;;;;;;;;;;;;15.20;39.31;101944.72;4168836;28;20056;-73
2023/06/03 08:24:30;;;;;;;;;;;;;;;15.22;39.06;101945.41;4153699;28;20024;-73
2023/06/03 08:26:32;;;;;;;;;;;;;;;15.27;38.87;101945.72;4152255;28;20029;-73
2023/06/03 08:28:34;;;;;;;;;;;;;;;15.30;38.73;101944.53;4154144;28;20017;-73
2023/06/03 08:30:36;;;;;;;;;;;;;;;15.34;38.55;101939.56;4154109;28;20367;-73
2023/06/03 08:32:40;;;;;;;;;;;;;;;15.33;38.20;101946.88;4152404;28;19979;-73
2023/06/03 08:34:41;;;;;;;;;;;;;;;15.36;38.58;101948.38;4150346;28;20036;-73
2023/06/03 08:36:46;;;;;;;;;;;;;;;15.38;38.47;101941.75;4156887;28;20027;-73
2023/06/03 08:38:48;;;;;;;;;;;;;;;15.41;38.62;101944.09;4156401;28;20367;-73
2023/06/03 08:40:50;;;;;;;;;;;;;;;15.46;38.69;101946.28;4154958;28;20907;-73
2023/06/03 08:43:02;;;;;;;;;;;;;;;15.48;38.93;101945.06;4167129;28;20385;-73
2023/06/03 08:45:04;;;;;;;;;;;;;;;15.52;39.11;101948.28;4153887;28;20357;-73
2023/06/03 08:47:11;;;;;;;;;;;;;;;15.58;38.65;101946.72;4155449;28;20019;-73
2023/06/03 08:49:17;;;;;;;;;;;;;;;15.63;38.25;101947.03;4156797;28;20012;-73
2023/06/03 08:51:20;;;;;;;;;;;;;;;15.63;37.74;101939.69;4157659;28;20378;-73
2023/06/03 08:53:22;;;;;;;;;;;;;;;15.63;38.19;101942.44;4156218;28;20020;-73
2023/06/03 08:55:25;;;;;;;;;;;;;;;15.65;38.03;101945.81;4155593;28;20020;-73
2023/06/03 08:57:27;;;;;;;;;;;;;;;15.68;37.87;101947.31;4157094;28;20017;-73
2023/06/03 08:59:29;;;;;;;;;;;;;;;15.68;37.86;101950.06;4156903;28;19994;-72
2023/06/03 09:01:33;;;;;;;;;;;;;;;15.67;37.84;101941.03;4158201;28;20008;-73
2023/06/03 09:03:38;;;;;;;;;;;;;;;15.73;37.91;101936.72;4157499;28;19933;-73
2023/06/03 09:05:42;;;;;;;;;;;;;;;15.74;37.48;101933.00;4155053;28;20012;-74
2023/06/03 09:07:47;;;;;;;;;;;;;;;15.76;37.29;101938.25;4153681;28;19949;-73
2023/06/03 09:09:50;;;;;;;;;;;;;;;15.75;36.92;101931.09;4158289;28;20008;-73
2023/06/03 09:11:52;;;;;;;;;;;;;;;15.77;37.23;101934.53;4157876;28;20036;-72
2023/06/03 09:13:54;;;;;;;;;;;;;;;15.79;37.67;101929.75;4156915;28;20024;-72
2023/06/03 09:15:56;;;;;;;;;;;;;;;15.85;37.71;101929.03;4156636;28;20024;-73
2023/06/03 09:18:01;;;;;;;;;;;;;;;15.91;37.29;101930.16;4156174;28;20013;-73
2023/06/03 09:20:05;;;;;;;;;;;;;;;15.91;37.22;101932.88;4151928;28;20024;-73
2023/06/03 09:22:11;;;;;;;;;;;;;;;15.94;36.58;101927.06;4154179;28;20017;-73
2023/06/03 09:24:13;;;;;;;;;;;;;;;15.87;37.03;101929.69;4157783;28;20013;-73
2023/06/03 09:26:14;;;;;;;;;;;;;;;15.88;37.14;101925.94;4155254;28;20017;-73
2023/06/03 09:28:20;;;;;;;;;;;;;;;15.91;37.44;101925.56;4157052;28;20016;-73
2023/06/03 09:30:22;;;;;;;;;;;;;;;15.98;37.16;101923.78;4156234;28;19960;-73
2023/06/03 09:32:24;;;;;;;;;;;;;;;16.04;36.56;101927.66;4154597;28;20024;-73
2023/06/03 09:34:27;;;;;;;;;;;;;;;16.00;36.21;101923.59;4156183;28;20573;-73
2023/06/03 09:36:29;;;;;;;;;;;;;;;16.07;36.60;101924.56;4154497;28;20012;-73
2023/06/03 09:41:07;;;;;;;;;;;;;;;16.04;37.43;101923.03;4226847;27;20309;-72
2023/06/03 09:43:12;;;;;;;;;;;;;;;16.06;36.81;101919.31;4216592;28;20018;-69
2023/06/03 09:45:22;;;;;;;;;;;;;;;16.12;36.72;101926.75;4190294;28;20016;-69
2023/06/03 09:47:34;;;;;;;;;;;;;;;16.13;36.65;101917.53;4183769;28;20471;-69
2023/06/03 09:49:36;;;;;;;;;;;;;;;16.10;37.30;101918.75;4183491;28;20016;-70
2023/06/03 09:51:42;;;;;;;;;;;;;;;16.10;37.40;101921.47;4184410;28;20039;-70
2023/06/03 09:53:44;;;;;;;;;;;;;;;16.09;37.68;101911.59;4183826;28;20012;-70
2023/06/03 09:55:46;;;;;;;;;;;;;;;16.09;38.05;101922.50;4200719;28;20032;-70
2023/06/03 09:58:04;;;;;;;;;;;;;;;16.14;38.09;101924.66;4200288;28;20019;-73
2023/06/03 10:00:15;;;;;;;;;;;;;;;16.16;37.46;101917.13;4200089;28;19925;-72
2023/06/03 10:02:17;;;;;;;;;;;;;;;16.18;37.40;101920.53;4199248;28;20023;-72
2023/06/03 10:04:20;;;;;;;;;;;;;;;16.20;37.40;101919.31;4199394;28;20019;-72
2023/06/03 10:06:23;;;;;;;;;;;;;;;16.21;37.31;101923.75;4230936;28;20065;-72
2023/06/03 10:08:28;;;;;;;;;;;;;;;16.26;37.63;101914.16;4201085;28;20118;-73
2023/06/03 10:10:30;;;;;;;;;;;;;;;16.25;37.43;101921.47;4199960;28;20060;-72
2023/06/03 10:12:32;;;;;;;;;;;;;;;16.27;37.07;101911.25;4199049;28;20015;-72
2023/06/03 10:14:36;;;;;;;;;;;;;;;16.29;35.42;101908.34;4197211;28;20031;-71
2023/06/03 10:16:38;;;;;;;;;;;;;;;16.32;36.90;101899.78;4198126;28;20020;-73
2023/06/03 10:18:43;;;;;;;;;;;;;;;16.33;37.33;101906.91;4198542;28;20632;-72
2023/06/03 10:20:45;;;;;;;;;;;;;;;16.38;36.67;101901.78;4199049;28;20363;-73
2023/06/03 10:22:47;;;;;;;;;;;;;;;16.40;37.42;101905.16;4200582;28;20365;-72
2023/06/03 10:24:52;;;;;;;;;;;;;;;16.42;37.35;101905.81;4200544;28;20379;-72
2023/06/03 10:26:53;;;;;;;;;;;;;;;16.39;37.73;101906.19;4201480;28;20015;-73
2023/06/03 10:28:56;;;;;;;;;;;;;;;16.43;37.28;101898.50;4200202;28;20028;-73
2023/06/03 10:30:59;;;;;;;;;;;;;;;16.48;37.25;101912.41;4201204;28;20047;-72
2023/06/03 10:33:03;;;;;;;;;;;;;;;16.50;37.03;101902.97;4200354;28;20441;-72
2023/06/03 10:35:06;;;;;;;;;;;;;;;16.52;37.57;101900.94;4201435;28;20027;-72
2023/06/03 10:37:09;;;;;;;;;;;;;;;16.56;37.18;101901.38;4200725;28;20015;-73